sensor_id;sensor_type;location;lat;lon;timestamp;pressure;altitude;pressure_sealevel;temperature;humidity
48644;BME280;34928;37.302;-121.984;2023-04-10T00:09:47;101287.0;;;29.28;21.46
48644;BME280;34928;37.302;-121.984;2023-04-10T00:19:52;101277.0;;;29.43;21.52
48644;BME280;34928;37.302;-121.984;2023-04-10T00:29:57;101272.0;;;29.55;21.68
48644;BME280;34928;37.302;-121.984;2023-04-10T00:40:08;101265.0;;;29.51;21.79
48644;BME280;34928;37.302;-121.984;2023-04-10T00:50:12;101257.0;;;29.65;21.90
48644;BME280;34928;37.302;-121.984;2023-04-10T01:00:17;101257.0;;;29.71;21.24
48644;BME280;34928;37.302;-121.984;2023-04-10T01:10:32;101253.0;;;29.61;20.87
48644;BME280;34928;37.302;-121.984;2023-04-10T01:20:38;101245.0;;;29.60;20.81
48644;BME280;34928;37.302;-121.984;2023-04-10T01:30:49;101241.0;;;29.68;20.73
48644;BME280;34928;37.302;-121.984;2023-04-10T01:40:57;101242.0;;;29.68;20.69
48644;BME280;34928;37.302;-121.984;2023-04-10T01:51:04;101240.0;;;29.47;20.63
48644;BME280;34928;37.302;-121.984;2023-04-10T02:01:18;101236.0;;;30.13;20.24
48644;BME280;34928;37.302;-121.984;2023-04-10T02:11:31;101237.0;;;29.59;20.08
48644;BME280;34928;37.302;-121.984;2023-04-10T02:21:38;101238.0;;;29.81;20.43
48644;BME280;34928;37.302;-121.984;2023-04-10T02:31:42;101238.0;;;30.14;20.80
48644;BME280;34928;37.302;-121.984;2023-04-10T02:41:48;101236.0;;;29.94;21.13
48644;BME280;34928;37.302;-121.984;2023-04-10T02:51:52;101241.0;;;30.35;21.58
48644;BME280;34928;37.302;-121.984;2023-04-10T03:01:57;101243.0;;;30.32;21.80
48644;BME280;34928;37.302;-121.984;2023-04-10T03:12:02;101251.0;;;30.11;21.30
48644;BME280;34928;37.302;-121.984;2023-04-10T03:22:08;101258.0;;;30.27;20.57
48644;BME280;34928;37.302;-121.984;2023-04-10T03:32:13;101259.0;;;30.17;20.84
48644;BME280;34928;37.302;-121.984;2023-04-10T03:42:18;101273.0;;;26.97;20.28
48644;BME280;34928;37.302;-121.984;2023-04-10T03:52:23;101284.0;;;26.25;21.88
48644;BME280;34928;37.302;-121.984;2023-04-10T04:02:27;101296.0;;;25.37;22.65
48644;BME280;34928;37.302;-121.984;2023-04-10T04:12:32;101304.0;;;25.13;23.36
48644;BME280;34928;37.302;-121.984;2023-04-10T04:22:38;101304.0;;;24.38;23.74
48644;BME280;34928;37.302;-121.984;2023-04-10T04:32:42;101311.0;;;24.40;24.41
48644;BME280;34928;37.302;-121.984;2023-04-10T04:42:48;101315.0;;;23.85;24.74
48644;BME280;34928;37.302;-121.984;2023-04-10T04:52:52;101311.0;;;23.71;25.15
48644;BME280;34928;37.302;-121.984;2023-04-10T05:02:57;101303.0;;;25.96;23.61
48644;BME280;34928;37.302;-121.984;2023-04-10T05:13:02;101311.0;;;27.24;22.38
48644;BME280;34928;37.302;-121.984;2023-04-10T05:23:08;101314.0;;;27.52;21.88
48644;BME280;34928;37.302;-121.984;2023-04-10T05:33:12;101308.0;;;27.83;21.62
48644;BME280;34928;37.302;-121.984;2023-04-10T05:43:17;101308.0;;;27.91;21.58
48644;BME280;34928;37.302;-121.984;2023-04-10T05:53:28;101304.0;;;28.39;21.52
48644;BME280;34928;37.302;-121.984;2023-04-10T06:03:33;101305.0;;;28.28;21.75
48644;BME280;34928;37.302;-121.984;2023-04-10T06:13:37;101300.0;;;28.54;21.66
48644;BME280;34928;37.302;-121.984;2023-04-10T06:23:42;101298.0;;;28.29;21.77
48644;BME280;34928;37.302;-121.984;2023-04-10T06:33:48;101292.0;;;28.21;22.22
48644;BME280;34928;37.302;-121.984;2023-04-10T06:43:53;101285.0;;;27.74;22.38
48644;BME280;34928;37.302;-121.984;2023-04-10T06:53:57;101279.0;;;27.94;22.31
48644;BME280;34928;37.302;-121.984;2023-04-10T07:04:03;101279.0;;;28.46;21.84
48644;BME280;34928;37.302;-121.984;2023-04-10T07:14:07;101284.0;;;28.27;22.15
48644;BME280;34928;37.302;-121.984;2023-04-10T07:24:13;101284.0;;;28.37;21.78
48644;BME280;34928;37.302;-121.984;2023-04-10T07:34:18;101274.0;;;28.36;21.72
48644;BME280;34928;37.302;-121.984;2023-04-10T07:44:22;101271.0;;;27.85;21.90
48644;BME280;34928;37.302;-121.984;2023-04-10T07:54:27;101269.0;;;27.57;22.14
48644;BME280;34928;37.302;-121.984;2023-04-10T08:04:33;101263.0;;;26.98;22.32
48644;BME280;34928;37.302;-121.984;2023-04-10T08:14:37;101254.0;;;26.79;22.23
48644;BME280;34928;37.302;-121.984;2023-04-10T08:24:42;101249.0;;;27.11;22.57
48644;BME280;34928;37.302;-121.984;2023-04-10T08:34:48;101249.0;;;27.34;22.22
48644;BME280;34928;37.302;-121.984;2023-04-10T08:44:52;101236.0;;;27.20;22.24
48644;BME280;34928;37.302;-121.984;2023-04-10T08:55:00;101221.0;;;27.05;22.29
48644;BME280;34928;37.302;-121.984;2023-04-10T09:05:10;101211.0;;;26.90;22.11
48644;BME280;34928;37.302;-121.984;2023-04-10T09:15:17;101202.0;;;27.02;22.33
48644;BME280;34928;37.302;-121.984;2023-04-10T09:25:32;101191.0;;;26.51;22.36
48644;BME280;34928;37.302;-121.984;2023-04-10T09:35:38;101182.0;;;27.33;22.42
48644;BME280;34928;37.302;-121.984;2023-04-10T09:45:47;101174.0;;;27.44;22.18
48644;BME280;34928;37.302;-121.984;2023-04-10T09:55:53;101161.0;;;26.73;22.20
48644;BME280;34928;37.302;-121.984;2023-04-10T10:05:57;101148.0;;;26.47;22.60
48644;BME280;34928;37.302;-121.984;2023-04-10T10:16:06;101140.0;;;27.02;22.41
48644;BME280;34928;37.302;-121.984;2023-04-10T10:26:13;101121.0;;;26.54;22.43
48644;BME280;34928;37.302;-121.984;2023-04-10T10:36:19;101112.0;;;26.59;22.48
48644;BME280;34928;37.302;-121.984;2023-04-10T10:46:36;101102.0;;;26.43;22.17
48644;BME280;34928;37.302;-121.984;2023-04-10T10:56:42;101091.0;;;26.17;22.21
48644;BME280;34928;37.302;-121.984;2023-04-10T11:06:50;101085.0;;;25.93;22.80
48644;BME280;34928;37.302;-121.984;2023-04-10T11:17:03;101077.0;;;25.92;22.64
48644;BME280;34928;37.302;-121.984;2023-04-10T11:27:07;101071.0;;;25.75;22.73
48644;BME280;34928;37.302;-121.984;2023-04-10T11:37:21;101063.0;;;25.94;22.51
48644;BME280;34928;37.302;-121.984;2023-04-10T11:47:27;101056.0;;;26.14;22.44
48644;BME280;34928;37.302;-121.984;2023-04-10T11:57:34;101057.0;;;25.90;22.45
48644;BME280;34928;37.302;-121.984;2023-04-10T12:07:38;101061.0;;;25.67;22.63
48644;BME280;34928;37.302;-121.984;2023-04-10T12:17:43;101067.0;;;25.85;22.54
48644;BME280;34928;37.302;-121.984;2023-04-10T12:27:49;101066.0;;;25.33;22.83
48644;BME280;34928;37.302;-121.984;2023-04-10T12:37:53;101073.0;;;25.12;22.90
48644;BME280;34928;37.302;-121.984;2023-04-10T12:47:57;101074.0;;;25.31;23.04
48644;BME280;34928;37.302;-121.984;2023-04-10T12:58:16;101086.0;;;25.02;23.05
48644;BME280;34928;37.302;-121.984;2023-04-10T13:08:22;101095.0;;;25.41;22.52
48644;BME280;34928;37.302;-121.984;2023-04-10T13:18:27;101098.0;;;25.62;22.78
48644;BME280;34928;37.302;-121.984;2023-04-10T13:28:32;101102.0;;;25.08;22.95
48644;BME280;34928;37.302;-121.984;2023-04-10T13:38:37;101103.0;;;25.31;22.83
48644;BME280;34928;37.302;-121.984;2023-04-10T13:48:42;101101.0;;;25.06;23.03
48644;BME280;34928;37.302;-121.984;2023-04-10T13:58:48;101101.0;;;25.35;23.01
48644;BME280;34928;37.302;-121.984;2023-04-10T14:08:52;101108.0;;;24.77;22.93
48644;BME280;34928;37.302;-121.984;2023-04-10T14:18:58;101122.0;;;24.93;23.59
48644;BME280;34928;37.302;-121.984;2023-04-10T14:29:02;101116.0;;;24.88;23.52
48644;BME280;34928;37.302;-121.984;2023-04-10T14:39:08;101120.0;;;25.31;23.14
48644;BME280;34928;37.302;-121.984;2023-04-10T14:49:13;101125.0;;;25.41;23.22
48644;BME280;34928;37.302;-121.984;2023-04-10T14:59:17;101129.0;;;25.29;23.50
48644;BME280;34928;37.302;-121.984;2023-04-10T15:09:22;101133.0;;;25.24;23.39
48644;BME280;34928;37.302;-121.984;2023-04-10T15:19:28;101138.0;;;24.73;23.55
48644;BME280;34928;37.302;-121.984;2023-04-10T15:29:37;101140.0;;;24.81;23.44
48644;BME280;34928;37.302;-121.984;2023-04-10T15:39:42;101145.0;;;25.47;23.73
48644;BME280;34928;37.302;-121.984;2023-04-10T15:49:47;101139.0;;;23.35;26.56
48644;BME280;34928;37.302;-121.984;2023-04-10T15:59:52;101143.0;;;22.47;27.84
48644;BME280;34928;37.302;-121.984;2023-04-10T16:09:58;101140.0;;;22.51;28.53
48644;BME280;34928;37.302;-121.984;2023-04-10T16:20:05;101144.0;;;22.94;28.45
48644;BME280;34928;37.302;-121.984;2023-04-10T16:30:09;101143.0;;;23.09;27.72
48644;BME280;34928;37.302;-121.984;2023-04-10T16:40:12;101132.0;;;23.15;27.91
48644;BME280;34928;37.302;-121.984;2023-04-10T16:50:17;101126.0;;;22.95;27.94
48644;BME280;34928;37.302;-121.984;2023-04-10T17:00:22;101125.0;;;22.42;28.71
48644;BME280;34928;37.302;-121.984;2023-04-10T17:10:27;101123.0;;;22.38;28.84
48644;BME280;34928;37.302;-121.984;2023-04-10T17:20:35;101126.0;;;22.87;28.74
48644;BME280;34928;37.302;-121.984;2023-04-10T17:30:38;101136.0;;;22.49;28.89
48644;BME280;34928;37.302;-121.984;2023-04-10T17:40:42;101139.0;;;23.30;28.03
48644;BME280;34928;37.302;-121.984;2023-04-10T17:50:47;101140.0;;;23.72;27.67
48644;BME280;34928;37.302;-121.984;2023-04-10T18:00:52;101136.0;;;23.62;27.68
48644;BME280;34928;37.302;-121.984;2023-04-10T18:10:57;101129.0;;;23.20;28.74
48644;BME280;34928;37.302;-121.984;2023-04-10T18:21:03;101116.0;;;23.36;28.57
48644;BME280;34928;37.302;-121.984;2023-04-10T18:31:07;101114.0;;;23.11;28.92
48644;BME280;34928;37.302;-121.984;2023-04-10T18:41:12;101101.0;;;23.47;28.34
48644;BME280;34928;37.302;-121.984;2023-04-10T18:51:18;101082.0;;;23.94;28.15
48644;BME280;34928;37.302;-121.984;2023-04-10T19:01:22;101072.0;;;23.84;28.31
48644;BME280;34928;37.302;-121.984;2023-04-10T19:11:27;101059.0;;;24.42;28.57
48644;BME280;34928;37.302;-121.984;2023-04-10T19:21:32;101052.0;;;24.27;30.03
48644;BME280;34928;37.302;-121.984;2023-04-10T19:31:37;101043.0;;;24.26;30.56
48644;BME280;34928;37.302;-121.984;2023-04-10T19:41:42;101034.0;;;24.19;30.15
48644;BME280;34928;37.302;-121.984;2023-04-10T19:51:47;101020.0;;;24.91;29.48
48644;BME280;34928;37.302;-121.984;2023-04-10T20:01:53;101007.0;;;24.82;29.36
48644;BME280;34928;37.302;-121.984;2023-04-10T20:11:57;100992.0;;;24.92;29.40
48644;BME280;34928;37.302;-121.984;2023-04-10T20:22:02;100994.0;;;25.09;29.02
48644;BME280;34928;37.302;-121.984;2023-04-10T20:32:07;100971.0;;;25.15;29.37
48644;BME280;34928;37.302;-121.984;2023-04-10T20:42:12;100961.0;;;25.61;29.05
48644;BME280;34928;37.302;-121.984;2023-04-10T20:52:17;100950.0;;;24.99;29.21
48644;BME280;34928;37.302;-121.984;2023-04-10T21:02:22;100940.0;;;25.18;29.25
48644;BME280;34928;37.302;-121.984;2023-04-10T21:12:27;100925.0;;;25.31;29.15
48644;BME280;34928;37.302;-121.984;2023-04-10T21:22:33;100928.0;;;25.26;29.19
48644;BME280;34928;37.302;-121.984;2023-04-10T21:32:38;100926.0;;;25.15;29.30
48644;BME280;34928;37.302;-121.984;2023-04-10T21:42:43;100904.0;;;25.42;29.01
48644;BME280;34928;37.302;-121.984;2023-04-10T21:52:48;100904.0;;;25.25;29.48
48644;BME280;34928;37.302;-121.984;2023-04-10T22:02:52;100913.0;;;25.36;29.06
48644;BME280;34928;37.302;-121.984;2023-04-10T22:12:57;100908.0;;;25.64;28.87
48644;BME280;34928;37.302;-121.984;2023-04-10T22:23:03;100890.0;;;25.74;29.17
48644;BME280;34928;37.302;-121.984;2023-04-10T22:33:07;100876.0;;;25.78;29.05
48644;BME280;34928;37.302;-121.984;2023-04-10T22:43:12;100881.0;;;26.01;29.06
48644;BME280;34928;37.302;-121.984;2023-04-10T22:53:17;100900.0;;;26.37;28.75
48644;BME280;34928;37.302;-121.984;2023-04-10T23:03:22;100919.0;;;26.25;28.73
48644;BME280;34928;37.302;-121.984;2023-04-10T23:13:27;100923.0;;;26.52;28.61
48644;BME280;34928;37.302;-121.984;2023-04-10T23:23:32;100933.0;;;26.54;28.37
48644;BME280;34928;37.302;-121.984;2023-04-10T23:33:37;100935.0;;;26.43;28.70
48644;BME280;34928;37.302;-121.984;2023-04-10T23:43:43;100936.0;;;26.61;28.97
48644;BME280;34928;37.302;-121.984;2023-04-10T23:53:53;100937.0;;;26.56;29.20
